createdAt,value
2023-01-19T00:00:48.872Z,48.70
2023-01-19T00:03:28.113Z,47.70
2023-01-19T00:05:56.516Z,49.20
2023-01-19T00:08:24.751Z,49.50
2023-01-19T00:10:52.914Z,51.10
2023-01-19T00:13:21.354Z,50.50
2023-01-19T00:15:49.690Z,48.50
2023-01-19T00:18:18.043Z,49.20
2023-01-19T00:20:46.851Z,48.90
2023-01-19T00:23:15.841Z,49.70
2023-01-19T00:25:44.422Z,48.70
2023-01-19T00:28:14.764Z,48.50
2023-01-19T00:30:43.541Z,45.70
2023-01-19T00:33:13.831Z,47.40
2023-01-19T00:35:42.195Z,47.20
2023-01-19T00:38:11.191Z,47.10
2023-01-19T00:40:39.561Z,46.80
2023-01-19T00:43:07.762Z,47.20
2023-01-19T00:45:35.981Z,47.90
2023-01-19T00:48:04.601Z,47.50
2023-01-19T00:50:33.387Z,46.70
2023-01-19T00:53:02.797Z,47.30
2023-01-19T00:55:32.528Z,47.40
2023-01-19T00:58:02.063Z,44.40
2023-01-19T01:00:30.538Z,46.80
2023-01-19T01:03:00.503Z,45.60
2023-01-19T01:05:29.080Z,47.20
2023-01-19T01:07:57.344Z,48.20
2023-01-19T01:10:28.604Z,49.30
2023-01-19T01:12:58.702Z,56.40
2023-01-19T01:15:29.217Z,68.70
2023-01-19T01:17:57.377Z,62.90
2023-01-19T01:20:29.431Z,63.60
2023-01-19T01:22:57.837Z,62.00
2023-01-19T01:25:27.709Z,62.40
2023-01-19T01:27:56.070Z,66.30
2023-01-19T01:30:24.280Z,65.40
2023-01-19T01:32:52.456Z,61.90
2023-01-19T01:35:20.684Z,56.30
2023-01-19T01:37:48.872Z,61.90
2023-01-19T01:40:18.272Z,62.90
2023-01-19T01:42:46.598Z,63.10
2023-01-19T01:45:32.763Z,62.40
2023-01-19T01:48:05.692Z,59.10
2023-01-19T01:50:38.385Z,59.00
2023-01-19T01:53:11.834Z,57.10
2023-01-19T01:55:48.807Z,56.80
2023-01-19T01:58:20.730Z,60.80
2023-01-19T02:01:08.929Z,61.40
2023-01-19T02:03:38.614Z,62.90
2023-01-19T02:06:09.455Z,60.50
2023-01-19T02:09:03.121Z,62.90
2023-01-19T02:11:51.688Z,61.10
2023-01-19T02:14:19.902Z,62.00
2023-01-19T02:16:48.475Z,62.60
2023-01-19T02:19:31.286Z,58.90
2023-01-19T02:22:06.163Z,60.60
2023-01-19T02:24:35.327Z,62.00
2023-01-19T02:27:04.312Z,63.10
2023-01-19T02:29:33.703Z,60.80
2023-01-19T02:32:02.539Z,61.60
2023-01-19T02:34:31.550Z,67.10
2023-01-19T02:37:05.935Z,64.10
2023-01-19T02:39:36.882Z,64.50
2023-01-19T02:42:09.406Z,67.90
2023-01-19T02:44:39.495Z,66.50
2023-01-19T02:47:07.834Z,66.80
2023-01-19T02:49:36.050Z,69.40
2023-01-19T02:52:05.485Z,67.20
2023-01-19T02:54:44.532Z,66.90
2023-01-19T02:57:47.170Z,67.50
2023-01-19T03:00:36.750Z,68.00
2023-01-19T03:03:17.173Z,68.30
2023-01-19T03:05:56.086Z,65.20
2023-01-19T03:08:37.266Z,63.70
2023-01-19T03:11:07.692Z,64.10
2023-01-19T03:13:44.847Z,62.60
2023-01-19T03:16:21.878Z,61.00
2023-01-19T03:18:54.992Z,62.70
2023-01-19T03:21:27.126Z,65.00
2023-01-19T03:24:01.962Z,66.20
2023-01-19T03:26:39.471Z,64.70
2023-01-19T03:29:10.919Z,63.00
2023-01-19T03:31:41.511Z,64.30
2023-01-19T03:34:12.972Z,65.00
2023-01-19T03:36:45.130Z,66.00
2023-01-19T03:39:17.652Z,60.60
2023-01-19T03:41:49.613Z,60.20
2023-01-19T03:44:18.141Z,63.70
2023-01-19T03:46:47.298Z,63.00
2023-01-19T03:49:15.720Z,59.80
2023-01-19T03:51:44.010Z,56.60
2023-01-19T03:54:12.511Z,53.20
2023-01-19T03:56:43.014Z,54.00
2023-01-19T03:59:11.159Z,52.80
2023-01-19T04:01:39.397Z,51.80
2023-01-19T04:04:07.632Z,51.30
2023-01-19T04:06:35.881Z,42.20
2023-01-19T04:09:04.093Z,44.70
2023-01-19T04:11:32.247Z,46.60
2023-01-19T04:14:00.986Z,47.00
2023-01-19T04:16:29.149Z,48.10
2023-01-19T04:18:57.370Z,48.90
2023-01-19T04:21:25.620Z,47.90
2023-01-19T04:23:53.872Z,48.80
2023-01-19T04:26:22.065Z,51.80
2023-01-19T04:28:50.220Z,57.50
2023-01-19T04:31:18.860Z,54.80
2023-01-19T04:33:47.055Z,55.40
2023-01-19T04:36:15.491Z,51.70
2023-01-19T04:38:45.865Z,54.80
2023-01-19T04:41:14.083Z,77.00
2023-01-19T04:43:42.299Z,84.00
2023-01-19T04:46:10.441Z,68.10
2023-01-19T04:48:40.118Z,68.00
2023-01-19T04:51:09.506Z,68.50
2023-01-19T04:53:37.766Z,64.70
2023-01-19T04:56:06.838Z,67.80
2023-01-19T04:58:35.314Z,71.00
2023-01-19T05:01:08.066Z,63.20
2023-01-19T05:03:36.289Z,65.30
2023-01-19T05:06:05.178Z,63.30
2023-01-19T05:08:33.362Z,60.20
2023-01-19T05:11:01.572Z,89.70
2023-01-19T05:13:29.775Z,75.90
2023-01-19T05:15:57.976Z,184.90
2023-01-19T05:18:26.156Z,102.30
2023-01-19T05:20:54.358Z,82.40
2023-01-19T05:23:22.530Z,62.50
2023-01-19T05:25:50.733Z,68.70
2023-01-19T05:28:20.467Z,88.20
2023-01-19T05:30:49.781Z,97.50
2023-01-19T05:33:17.929Z,107.90
2023-01-19T05:35:46.093Z,122.00
2023-01-19T05:38:15.638Z,135.30
2023-01-19T05:40:45.258Z,135.20
2023-01-19T05:43:13.759Z,109.10
2023-01-19T05:45:42.519Z,76.90
2023-01-19T05:48:10.662Z,78.30
2023-01-19T05:50:38.901Z,90.10
2023-01-19T05:53:07.039Z,95.90
2023-01-19T05:55:35.361Z,95.80
2023-01-19T05:58:03.574Z,96.80
2023-01-19T06:00:31.745Z,99.70
2023-01-19T06:03:01.712Z,107.20
2023-01-19T06:05:30.574Z,110.80
2023-01-19T06:07:59.032Z,93.60
2023-01-19T06:10:27.426Z,90.70
2023-01-19T06:12:55.593Z,86.80
2023-01-19T06:15:23.825Z,86.90
2023-01-19T06:17:52.051Z,84.10
2023-01-19T06:20:20.363Z,92.50
2023-01-19T06:22:48.590Z,92.00
2023-01-19T06:25:17.089Z,96.10
2023-01-19T06:27:45.559Z,99.00
2023-01-19T06:30:14.715Z,94.80
2023-01-19T06:32:42.913Z,94.80
2023-01-19T06:35:11.502Z,101.30
2023-01-19T06:37:39.911Z,96.70
2023-01-19T06:40:13.542Z,99.10
2023-01-19T06:42:42.466Z,100.40
2023-01-19T06:45:11.499Z,99.20
2023-01-19T06:47:39.763Z,99.80
2023-01-19T06:50:10.212Z,97.50
2023-01-19T06:52:41.566Z,95.90
2023-01-19T06:55:10.464Z,96.60
2023-01-19T06:57:39.534Z,99.00
2023-01-19T07:00:11.036Z,107.00
2023-01-19T07:02:42.246Z,119.70
2023-01-19T07:05:13.576Z,116.30
2023-01-19T07:07:44.035Z,114.60
2023-01-19T07:10:14.834Z,109.70
2023-01-19T07:12:45.768Z,106.10
2023-01-19T07:15:15.114Z,106.10
2023-01-19T07:17:43.424Z,111.00
2023-01-19T07:20:13.702Z,106.40
2023-01-19T07:22:43.162Z,104.60
2023-01-19T07:25:11.507Z,98.70
2023-01-19T07:27:40.056Z,92.30
2023-01-19T07:30:10.458Z,88.30
2023-01-19T07:32:38.746Z,89.10
2023-01-19T07:35:07.928Z,86.50
2023-01-19T07:37:36.215Z,88.60
2023-01-19T07:40:06.074Z,97.10
2023-01-19T07:42:34.313Z,115.10
2023-01-19T07:45:03.535Z,112.20
2023-01-19T07:47:31.792Z,134.80
2023-01-19T07:50:00.144Z,105.70
2023-01-19T07:52:28.366Z,102.20
2023-01-19T07:54:57.655Z,97.70
2023-01-19T07:57:25.855Z,96.50
2023-01-19T07:59:54.065Z,96.00
2023-01-19T08:02:22.364Z,98.90
2023-01-19T08:04:51.213Z,97.10
2023-01-19T08:07:19.454Z,98.90
2023-01-19T08:09:47.749Z,94.90
2023-01-19T08:12:16.478Z,96.60
2023-01-19T08:14:44.718Z,97.10
2023-01-19T08:17:13.425Z,98.40
2023-01-19T08:19:42.599Z,100.30
2023-01-19T08:22:10.761Z,113.70
2023-01-19T08:24:39.018Z,106.40
2023-01-19T08:27:09.113Z,96.30
2023-01-19T08:29:37.463Z,100.30
2023-01-19T08:32:06.382Z,101.20
2023-01-19T08:34:34.817Z,93.50
2023-01-19T08:37:03.048Z,100.70
2023-01-19T08:39:31.238Z,101.00
2023-01-19T08:42:00.000Z,113.20
2023-01-19T08:44:28.369Z,114.60
2023-01-19T08:46:56.546Z,120.60
2023-01-19T08:49:24.780Z,114.10
2023-01-19T08:51:53.019Z,105.30
2023-01-19T08:54:22.486Z,101.20
2023-01-19T08:56:50.684Z,102.80
2023-01-19T08:59:18.830Z,107.50
2023-01-19T09:01:47.145Z,102.30
2023-01-19T09:04:15.487Z,90.40
2023-01-19T09:06:43.861Z,86.90
2023-01-19T09:09:12.037Z,81.50
2023-01-19T09:11:40.266Z,87.20
2023-01-19T09:14:08.487Z,77.20
2023-01-19T09:16:36.759Z,76.70
2023-01-19T09:19:07.881Z,78.40
2023-01-19T09:21:36.145Z,79.70
2023-01-19T09:24:05.341Z,75.40
2023-01-19T09:26:33.507Z,72.70
2023-01-19T09:29:02.236Z,67.30
2023-01-19T09:31:30.649Z,69.20
2023-01-19T09:33:59.063Z,68.80
2023-01-19T09:36:27.270Z,73.50
2023-01-19T09:38:55.522Z,78.40
2023-01-19T09:41:25.484Z,69.80
2023-01-19T09:43:57.568Z,74.10
2023-01-19T09:46:32.953Z,76.80
2023-01-19T09:49:05.869Z,68.80
2023-01-19T09:51:38.365Z,67.90
2023-01-19T09:54:13.399Z,74.10
2023-01-19T09:56:41.894Z,69.30
2023-01-19T09:59:20.464Z,67.50
2023-01-19T10:02:01.000Z,69.60
2023-01-19T10:04:33.813Z,69.50
2023-01-19T10:07:13.664Z,72.50
2023-01-19T10:09:54.037Z,71.80
2023-01-19T10:12:38.744Z,62.30
2023-01-19T10:15:17.728Z,61.80
2023-01-19T10:17:55.860Z,58.50
2023-01-19T10:20:29.172Z,58.70
2023-01-19T10:22:59.931Z,59.40
2023-01-19T10:25:28.961Z,62.00
2023-01-19T10:28:00.268Z,60.70
2023-01-19T10:30:30.023Z,60.20
2023-01-19T10:32:58.317Z,58.80
2023-01-19T10:35:26.883Z,60.70
2023-01-19T10:37:58.613Z,60.10
2023-01-19T10:40:32.831Z,62.50
2023-01-19T10:43:01.472Z,83.70
2023-01-19T10:45:31.175Z,68.90
2023-01-19T10:48:05.804Z,57.50
2023-01-19T10:50:36.379Z,56.70
2023-01-19T10:53:06.208Z,80.40
2023-01-19T10:55:37.227Z,63.30
2023-01-19T10:58:06.440Z,110.90
2023-01-19T11:00:37.283Z,64.90
2023-01-19T11:03:22.008Z,58.40
2023-01-19T11:05:50.772Z,95.10
2023-01-19T11:08:28.382Z,63.70
2023-01-19T11:11:03.608Z,62.20
2023-01-19T11:13:32.242Z,66.20
2023-01-19T11:16:06.173Z,61.60
2023-01-19T11:18:37.176Z,69.10
2023-01-19T11:21:08.698Z,57.80
2023-01-19T11:23:42.357Z,57.80
2023-01-19T11:26:15.612Z,53.30
2023-01-19T11:28:50.647Z,51.90
2023-01-19T11:31:30.774Z,50.10
2023-01-19T11:34:01.112Z,50.90
2023-01-19T11:36:30.999Z,45.30
2023-01-19T11:39:01.831Z,48.30
2023-01-19T11:41:34.594Z,48.90
2023-01-19T11:44:15.013Z,58.80
2023-01-19T11:46:47.476Z,53.70
2023-01-19T11:49:24.108Z,62.40
2023-01-19T11:51:59.431Z,55.90
2023-01-19T11:54:31.867Z,47.00
2023-01-19T11:57:01.260Z,48.70
2023-01-19T11:59:29.544Z,50.50
2023-01-19T12:02:01.266Z,48.40
2023-01-19T12:07:02.446Z,56.40
2023-01-19T12:09:35.780Z,52.00
2023-01-19T12:12:06.902Z,51.90
2023-01-19T12:14:40.971Z,56.90
2023-01-19T12:17:19.091Z,71.20
2023-01-19T12:19:55.229Z,67.00
2023-01-19T12:22:27.779Z,87.70
2023-01-19T12:25:05.534Z,72.40
2023-01-19T12:27:39.957Z,70.00
2023-01-19T12:30:18.311Z,54.20
2023-01-19T12:32:46.609Z,54.60
2023-01-19T12:35:46.863Z,58.50
2023-01-19T12:38:35.658Z,62.10
2023-01-19T12:41:18.266Z,66.10
2023-01-19T12:43:47.131Z,71.50
2023-01-19T12:46:24.156Z,91.50
2023-01-19T12:48:52.938Z,61.50
2023-01-19T12:51:25.273Z,65.80
2023-01-19T12:53:54.653Z,71.90
2023-01-19T12:56:30.825Z,74.00
2023-01-19T12:58:59.910Z,59.50
2023-01-19T13:01:28.301Z,57.90
2023-01-19T13:04:03.636Z,57.50
2023-01-19T13:07:09.527Z,61.70
2023-01-19T13:09:38.727Z,51.50
2023-01-19T13:12:21.931Z,64.60
2023-01-19T13:14:50.367Z,59.40
2023-01-19T13:17:26.089Z,55.00
2023-01-19T13:20:26.490Z,53.40
2023-01-19T13:23:23.058Z,70.20
2023-01-19T13:26:14.128Z,51.20
2023-01-19T13:28:44.524Z,50.10
2023-01-19T13:31:13.837Z,52.80
2023-01-19T13:33:49.179Z,52.80
2023-01-19T13:36:26.152Z,53.60
2023-01-19T13:38:56.405Z,74.20
2023-01-19T13:41:27.205Z,60.60
2023-01-19T13:44:01.031Z,56.10
2023-01-19T13:46:30.653Z,50.90
2023-01-19T13:49:03.970Z,54.00
2023-01-19T13:51:32.338Z,51.10
2023-01-19T13:54:01.298Z,50.40
2023-01-19T13:56:30.056Z,51.50
2023-01-19T13:59:12.421Z,53.20
2023-01-19T14:01:42.860Z,56.90
2023-01-19T14:04:29.197Z,56.90
2023-01-19T14:07:00.518Z,54.60
2023-01-19T14:09:28.753Z,55.90
2023-01-19T14:12:13.234Z,55.00
2023-01-19T14:14:42.308Z,52.00
2023-01-19T14:17:24.232Z,55.20
2023-01-19T14:19:54.307Z,57.40
2023-01-19T14:22:38.319Z,61.20
2023-01-19T14:25:28.672Z,60.00
2023-01-19T14:28:34.910Z,59.10
2023-01-19T14:31:17.085Z,60.30
2023-01-19T14:33:46.756Z,62.20
2023-01-19T14:36:29.438Z,57.70
2023-01-19T14:38:59.736Z,58.50
2023-01-19T14:41:35.666Z,59.40
2023-01-19T14:44:08.862Z,52.90
2023-01-19T14:46:37.611Z,52.50
2023-01-19T14:49:06.911Z,57.30
2023-01-19T14:51:35.213Z,55.70
2023-01-19T14:54:04.192Z,56.10
2023-01-19T14:56:34.510Z,57.70
2023-01-19T14:59:09.396Z,56.60
2023-01-19T15:01:37.747Z,78.40
2023-01-19T15:04:06.055Z,69.60
2023-01-19T15:06:39.567Z,56.30
2023-01-19T15:09:11.421Z,56.90
2023-01-19T15:11:40.583Z,54.70
2023-01-19T15:14:13.167Z,55.10
2023-01-19T15:16:41.762Z,50.40
2023-01-19T15:19:12.297Z,45.70
2023-01-19T15:21:41.593Z,49.40
2023-01-19T15:24:11.481Z,47.80
2023-01-19T15:26:41.928Z,66.80
2023-01-19T15:29:23.030Z,62.90
2023-01-19T15:31:52.239Z,51.90
2023-01-19T15:34:20.537Z,49.30
2023-01-19T15:36:49.809Z,48.20
2023-01-19T15:39:18.220Z,48.40
2023-01-19T15:41:46.485Z,46.80
2023-01-19T15:44:14.758Z,43.50
2023-01-19T15:46:42.981Z,57.00
2023-01-19T15:49:11.201Z,48.60
2023-01-19T15:51:39.367Z,72.30
2023-01-19T15:54:12.890Z,65.20
2023-01-19T15:56:41.653Z,125.00
2023-01-19T15:59:09.835Z,120.40
2023-01-19T16:01:39.446Z,115.10
2023-01-19T16:04:10.346Z,61.10
2023-01-19T16:06:38.797Z,135.70
2023-01-19T16:09:07.000Z,99.50
2023-01-19T16:11:37.012Z,93.70
2023-01-19T16:14:05.191Z,70.00
2023-01-19T16:16:33.449Z,110.20
2023-01-19T16:19:01.733Z,71.20
2023-01-19T16:21:29.951Z,78.20
2023-01-19T16:23:58.133Z,127.00
2023-01-19T16:26:29.677Z,86.50
2023-01-19T16:29:00.090Z,171.90
2023-01-19T16:31:29.073Z,101.00
2023-01-19T16:33:57.316Z,95.50
2023-01-19T16:36:27.672Z,161.20
2023-01-19T16:38:58.909Z,115.00
2023-01-19T16:41:27.153Z,268.60
2023-01-19T16:43:57.501Z,189.10
2023-01-19T16:46:27.748Z,143.90
2023-01-19T16:49:00.126Z,175.40
2023-01-19T16:51:28.559Z,108.90
2023-01-19T16:53:57.059Z,97.90
2023-01-19T16:56:25.352Z,101.10
2023-01-19T16:58:54.290Z,81.70
2023-01-19T17:01:23.297Z,86.30
2023-01-19T17:03:51.778Z,60.40
2023-01-19T17:06:22.482Z,64.30
2023-01-19T17:08:51.655Z,61.10
2023-01-19T17:11:22.239Z,68.40
2023-01-19T17:13:53.837Z,73.10
2023-01-19T17:16:23.017Z,81.60
2023-01-19T17:18:52.149Z,74.10
2023-01-19T17:21:20.416Z,73.10
2023-01-19T17:23:51.689Z,55.90
2023-01-19T17:26:20.598Z,64.90
2023-01-19T17:28:48.804Z,64.10
2023-01-19T17:31:19.149Z,60.70
2023-01-19T17:33:49.627Z,62.10
2023-01-19T17:36:21.546Z,60.00
2023-01-19T17:38:49.907Z,64.50
2023-01-19T17:41:20.552Z,70.00
2023-01-19T17:43:49.951Z,62.50
2023-01-19T17:46:20.071Z,62.70
2023-01-19T17:48:51.989Z,66.90
2023-01-19T17:51:22.270Z,83.20
2023-01-19T17:53:51.861Z,75.30
2023-01-19T17:56:22.140Z,67.40
2023-01-19T17:58:50.321Z,64.00
2023-01-19T18:01:21.255Z,66.60
2023-01-19T18:03:50.478Z,61.60
2023-01-19T18:06:19.326Z,67.00
2023-01-19T18:08:48.810Z,67.80
2023-01-19T18:11:19.786Z,72.10
2023-01-19T18:13:49.791Z,106.90
2023-01-19T18:16:19.937Z,98.10
2023-01-19T18:18:49.523Z,92.10
2023-01-19T18:21:19.490Z,93.30
2023-01-19T18:23:48.375Z,115.10
2023-01-19T18:26:19.082Z,107.70
2023-01-19T18:28:48.360Z,94.60
2023-01-19T18:31:18.528Z,85.40
2023-01-19T18:33:47.897Z,63.90
2023-01-19T18:36:16.710Z,89.40
2023-01-19T18:38:45.360Z,77.50
2023-01-19T18:41:15.856Z,79.50
2023-01-19T18:43:45.870Z,95.10
2023-01-19T18:46:14.947Z,99.40
2023-01-19T18:48:43.784Z,74.70
2023-01-19T18:51:14.482Z,84.70
2023-01-19T18:53:43.335Z,116.40
2023-01-19T18:56:13.111Z,89.40
2023-01-19T18:58:41.980Z,65.90
2023-01-19T19:01:20.431Z,85.00
2023-01-19T19:03:48.732Z,88.90
2023-01-19T19:06:19.982Z,80.60
2023-01-19T19:08:49.755Z,75.50
2023-01-19T19:11:18.846Z,69.80
2023-01-19T19:13:51.053Z,80.80
2023-01-19T19:16:19.366Z,81.30
2023-01-19T19:18:49.132Z,75.70
2023-01-19T19:21:18.927Z,79.70
2023-01-19T19:23:50.992Z,73.40
2023-01-19T19:26:19.814Z,73.90
2023-01-19T19:28:48.473Z,58.70
2023-01-19T19:31:19.679Z,58.90
2023-01-19T19:33:51.193Z,66.70
2023-01-19T19:36:23.071Z,97.40
2023-01-19T19:38:51.734Z,81.60
2023-01-19T19:41:21.949Z,71.80
2023-01-19T19:43:50.668Z,69.50
2023-01-19T19:46:20.231Z,66.80
2023-01-19T19:48:49.424Z,70.30
2023-01-19T19:51:21.735Z,68.80
2023-01-19T19:53:51.651Z,66.80
2023-01-19T19:56:24.079Z,69.30
2023-01-19T19:58:55.068Z,69.20
2023-01-19T20:01:30.021Z,63.30
2023-01-19T20:04:05.550Z,60.30
2023-01-19T20:06:37.890Z,57.10
2023-01-19T20:09:07.373Z,55.40
2023-01-19T20:11:36.423Z,56.90
2023-01-19T20:14:06.490Z,63.20
2023-01-19T20:16:35.595Z,67.90
2023-01-19T20:19:04.730Z,58.80
2023-01-19T20:21:35.285Z,60.20
2023-01-19T20:24:07.745Z,69.40
2023-01-19T20:26:39.361Z,59.40
2023-01-19T20:31:37.562Z,54.10
2023-01-19T20:34:09.310Z,57.80
2023-01-19T20:36:37.979Z,56.30
2023-01-19T20:39:09.670Z,56.00
2023-01-19T20:44:11.808Z,54.90
2023-01-19T20:46:40.463Z,54.50
2023-01-19T20:49:09.551Z,55.10
2023-01-19T20:51:42.373Z,54.30
2023-01-19T20:54:11.254Z,52.00
2023-01-19T20:56:40.738Z,51.90
2023-01-19T20:59:09.316Z,50.30
2023-01-19T21:01:38.572Z,52.10
2023-01-19T21:04:07.861Z,53.70
2023-01-19T21:06:36.607Z,50.90
2023-01-19T21:09:05.275Z,48.30
2023-01-19T21:11:33.934Z,47.40
2023-01-19T21:14:02.623Z,49.00
2023-01-19T21:16:33.558Z,50.20
2023-01-19T21:19:01.984Z,52.80
2023-01-19T21:21:31.732Z,51.70
2023-01-19T21:24:01.641Z,50.60
2023-01-19T21:26:30.876Z,50.40
2023-01-19T21:28:59.849Z,50.90
2023-01-19T21:31:28.952Z,53.70
2023-01-19T21:33:57.956Z,53.20
2023-01-19T21:36:26.186Z,54.80
2023-01-19T21:38:59.451Z,52.70
2023-01-19T21:41:29.379Z,51.70
2023-01-19T21:43:59.216Z,52.40
2023-01-19T21:46:28.427Z,51.50
2023-01-19T21:48:57.446Z,50.60
2023-01-19T21:51:25.947Z,44.90
2023-01-19T21:53:58.775Z,44.90
2023-01-19T21:56:28.223Z,39.40
2023-01-19T21:58:58.687Z,36.30
2023-01-19T22:01:27.328Z,32.90
2023-01-19T22:03:57.098Z,236.40
2023-01-19T22:06:26.269Z,45.00
2023-01-19T22:08:57.066Z,31.90
2023-01-19T22:11:25.440Z,33.10
2023-01-19T22:13:54.027Z,33.00
2023-01-19T22:16:22.913Z,31.30
2023-01-19T22:18:53.321Z,35.50
2023-01-19T22:21:23.913Z,35.40
2023-01-19T22:23:54.569Z,37.50
2023-01-19T22:26:23.007Z,40.10
2023-01-19T22:28:54.737Z,38.00
2023-01-19T22:31:23.659Z,40.40
2023-01-19T22:33:52.156Z,38.70
2023-01-19T22:36:22.261Z,39.10
2023-01-19T22:38:51.954Z,37.40
2023-01-19T22:41:22.604Z,39.50
2023-01-19T22:43:52.312Z,43.00
2023-01-19T22:46:22.585Z,41.50
2023-01-19T22:48:52.156Z,37.70
2023-01-19T22:51:21.981Z,37.80
2023-01-19T22:53:50.244Z,40.10
2023-01-19T22:56:20.543Z,41.10
2023-01-19T22:58:49.766Z,44.30
2023-01-19T23:01:20.563Z,45.70
2023-01-19T23:03:49.211Z,46.50
2023-01-19T23:06:21.288Z,45.40
2023-01-19T23:08:49.901Z,51.80
2023-01-19T23:11:20.526Z,49.00
2023-01-19T23:13:50.045Z,49.70
2023-01-19T23:16:19.001Z,51.80
2023-01-19T23:18:47.704Z,52.00
2023-01-19T23:21:18.100Z,50.60
2023-01-19T23:23:46.425Z,49.90
2023-01-19T23:26:16.778Z,50.00
2023-01-19T23:28:45.958Z,49.40
2023-01-19T23:31:16.901Z,49.00
2023-01-19T23:33:45.159Z,48.00
2023-01-19T23:36:14.291Z,49.50
2023-01-19T23:38:47.753Z,53.70
2023-01-19T23:41:16.127Z,47.40
2023-01-19T23:43:44.731Z,45.40
2023-01-19T23:46:13.772Z,44.60
2023-01-19T23:48:44.836Z,45.60
2023-01-19T23:51:15.477Z,43.70
2023-01-19T23:53:44.017Z,43.90
2023-01-19T23:56:14.172Z,43.20
2023-01-19T23:58:42.774Z,41.70
